VRA weather

Juan Gualberto Gomez International Airport
Varadero, Matanzas, Cuba

Public forecast

Using degrees Celsius for public forecast. Weather courtesy of forecast.io.

METAR (pilot weather report)

Retrieved 2019/05/19 17:50 UTC (48 minutes ago):

MUVR 191750Z 07005KT 010V080 9000 FEW020 30/22 Q1015

TAF (pilot weather forecast)

Retrieved 2019/05/19 18:03 UTC (35 minutes ago):

TAF MUVR 191700Z 1918/2018 07008KT 9000 SCT020 TEMPO 1918/1924 VRB10KT 3000 TSRA FEW018CB BKN020 BECMG 2001/2003 VRB03KT BECMG 2015/2017 04010KT